createdAt,value
2022-08-03T00:01:37.985Z,21.40
2022-08-03T00:04:08.670Z,21.30
2022-08-03T00:06:37.303Z,21.30
2022-08-03T00:09:05.768Z,21.20
2022-08-03T00:11:32.951Z,21.20
2022-08-03T00:13:59.920Z,21.20
2022-08-03T00:16:26.928Z,21.20
2022-08-03T00:18:53.877Z,21.20
2022-08-03T00:21:20.835Z,21.20
2022-08-03T00:23:51.176Z,21.00
2022-08-03T00:26:20.595Z,21.00
2022-08-03T00:28:47.818Z,21.10
2022-08-03T00:31:14.894Z,21.10
2022-08-03T00:33:58.382Z,21.10
2022-08-03T00:36:27.708Z,21.10
2022-08-03T00:38:55.381Z,21.00
2022-08-03T00:41:22.636Z,21.10
2022-08-03T00:43:49.678Z,21.00
2022-08-03T00:46:21.280Z,21.00
2022-08-03T00:48:52.500Z,20.90
2022-08-03T00:51:21.591Z,20.90
2022-08-03T00:53:49.379Z,20.90
2022-08-03T00:56:17.026Z,20.90
2022-08-03T00:58:45.563Z,20.80
2022-08-03T01:01:12.860Z,20.70
2022-08-03T01:03:40.155Z,20.70
2022-08-03T01:06:18.739Z,20.70
2022-08-03T01:09:05.769Z,20.70
2022-08-03T01:12:01.102Z,20.80
2022-08-03T01:14:39.238Z,20.80
2022-08-03T01:17:47.655Z,20.80
2022-08-03T01:20:16.868Z,20.80
2022-08-03T01:23:10.781Z,20.70
2022-08-03T01:26:09.730Z,20.60
2022-08-03T01:29:18.473Z,20.60
2022-08-03T01:32:53.659Z,20.60
2022-08-03T01:34:51.983Z,20.60
2022-08-03T01:37:26.578Z,20.60
2022-08-03T01:39:58.023Z,20.60
2022-08-03T01:42:26.677Z,20.60
2022-08-03T01:44:55.989Z,20.50
2022-08-03T01:47:23.973Z,20.50
2022-08-03T01:49:52.854Z,20.60
2022-08-03T01:52:21.668Z,20.50
2022-08-03T01:54:51.521Z,20.50
2022-08-03T01:57:19.905Z,20.40
2022-08-03T01:59:49.080Z,20.40
2022-08-03T02:02:33.080Z,20.40
2022-08-03T02:05:03.477Z,20.40
2022-08-03T02:07:32.060Z,20.40
2022-08-03T02:10:01.119Z,20.40
2022-08-03T02:12:29.941Z,20.30
2022-08-03T02:15:00.119Z,20.30
2022-08-03T02:17:39.159Z,20.30
2022-08-03T02:20:12.160Z,20.30
2022-08-03T02:22:43.760Z,20.30
2022-08-03T02:25:13.328Z,20.20
2022-08-03T02:27:55.188Z,20.20
2022-08-03T02:30:24.322Z,20.20
2022-08-03T02:32:57.135Z,20.20
2022-08-03T02:35:27.117Z,20.20
2022-08-03T02:38:01.100Z,20.20
2022-08-03T02:40:29.874Z,20.10
2022-08-03T02:43:00.611Z,20.10
2022-08-03T02:45:29.808Z,20.00
2022-08-03T02:48:02.949Z,20.00
2022-08-03T02:50:30.734Z,20.00
2022-08-03T02:52:59.802Z,19.90
2022-08-03T02:55:28.677Z,20.00
2022-08-03T02:57:57.374Z,20.00
2022-08-03T03:00:30.909Z,19.90
2022-08-03T03:03:00.446Z,19.90
2022-08-03T03:05:54.519Z,19.80
2022-08-03T03:08:20.558Z,19.90
2022-08-03T03:10:55.688Z,19.90
2022-08-03T03:13:24.279Z,19.90
2022-08-03T03:15:52.749Z,19.90
2022-08-03T03:18:22.921Z,19.90
2022-08-03T03:20:52.935Z,19.80
2022-08-03T03:23:22.757Z,19.80
2022-08-03T03:25:51.252Z,19.80
2022-08-03T03:28:18.506Z,19.80
2022-08-03T03:30:52.701Z,19.80
2022-08-03T03:33:21.612Z,19.70
2022-08-03T03:35:49.248Z,19.70
2022-08-03T03:38:16.252Z,19.80
2022-08-03T03:40:43.853Z,19.70
2022-08-03T03:43:12.780Z,19.80
2022-08-03T03:45:42.301Z,19.80
2022-08-03T03:48:09.531Z,19.80
2022-08-03T03:50:37.723Z,19.70
2022-08-03T03:53:05.015Z,19.70
2022-08-03T03:56:01.576Z,19.80
2022-08-03T03:58:27.272Z,19.70
2022-08-03T04:00:54.468Z,19.70
2022-08-03T04:03:21.601Z,19.70
2022-08-03T04:06:07.122Z,19.60
2022-08-03T04:08:52.852Z,19.60
2022-08-03T04:11:31.702Z,19.60
2022-08-03T04:14:03.556Z,19.60
2022-08-03T04:16:46.446Z,19.60
2022-08-03T04:19:23.311Z,19.60
2022-08-03T04:21:56.770Z,19.60
2022-08-03T04:24:27.162Z,19.50
2022-08-03T04:26:56.173Z,19.60
2022-08-03T04:29:26.138Z,19.60
2022-08-03T04:31:55.878Z,19.60
2022-08-03T04:34:23.049Z,19.60
2022-08-03T04:36:52.905Z,19.50
2022-08-03T04:39:28.302Z,19.60
2022-08-03T04:42:08.171Z,19.50
2022-08-03T04:44:41.246Z,19.50
2022-08-03T04:47:08.552Z,19.50
2022-08-03T04:49:37.992Z,19.50
2022-08-03T04:52:07.652Z,19.50
2022-08-03T04:54:42.807Z,19.50
2022-08-03T04:57:22.385Z,19.50
2022-08-03T05:00:01.309Z,19.60
2022-08-03T05:02:30.150Z,19.60
2022-08-03T05:04:57.407Z,19.60
2022-08-03T05:07:24.897Z,19.60
2022-08-03T05:10:01.751Z,19.60
2022-08-03T05:12:32.820Z,19.70
2022-08-03T05:15:00.977Z,19.90
2022-08-03T05:17:28.871Z,20.00
2022-08-03T05:19:56.539Z,19.90
2022-08-03T05:22:23.635Z,19.80
2022-08-03T05:24:50.621Z,19.90
2022-08-03T05:27:19.397Z,20.00
2022-08-03T05:29:48.056Z,20.00
2022-08-03T05:32:15.957Z,19.90
2022-08-03T05:34:43.185Z,20.00
2022-08-03T05:37:10.586Z,20.00
2022-08-03T05:39:38.235Z,20.00
2022-08-03T05:42:05.260Z,20.10
2022-08-03T05:44:32.261Z,20.20
2022-08-03T05:46:59.575Z,20.20
2022-08-03T05:49:26.577Z,20.20
2022-08-03T05:52:00.027Z,20.30
2022-08-03T05:54:56.938Z,20.30
2022-08-03T05:57:25.928Z,20.30
2022-08-03T05:59:53.968Z,20.30
2022-08-03T06:02:27.182Z,20.40
2022-08-03T06:04:54.684Z,20.50
2022-08-03T06:07:21.874Z,20.60
2022-08-03T06:10:33.291Z,20.50
2022-08-03T06:12:36.368Z,20.60
2022-08-03T06:15:04.677Z,20.70
2022-08-03T06:17:37.694Z,20.70
2022-08-03T06:20:06.279Z,20.80
2022-08-03T06:22:33.327Z,20.90
2022-08-03T06:25:04.167Z,20.90
2022-08-03T06:27:37.006Z,21.00
2022-08-03T06:30:10.544Z,21.10
2022-08-03T06:32:40.857Z,21.10
2022-08-03T06:35:10.098Z,21.20
2022-08-03T06:37:48.772Z,21.30
2022-08-03T06:40:21.588Z,21.40
2022-08-03T06:42:51.465Z,21.50
2022-08-03T06:45:18.661Z,21.50
2022-08-03T06:47:45.625Z,21.60
2022-08-03T06:50:17.156Z,21.70
2022-08-03T06:52:45.362Z,21.70
2022-08-03T06:55:12.454Z,21.80
2022-08-03T06:57:39.463Z,21.90
2022-08-03T07:00:12.263Z,21.90
2022-08-03T07:02:40.209Z,22.00
2022-08-03T07:05:09.223Z,22.10
2022-08-03T07:07:37.308Z,22.00
2022-08-03T07:10:05.865Z,22.00
2022-08-03T07:12:33.895Z,22.10
2022-08-03T07:15:05.228Z,22.20
2022-08-03T07:17:34.364Z,22.30
2022-08-03T07:20:04.819Z,22.30
2022-08-03T07:22:31.906Z,22.40
2022-08-03T07:24:58.878Z,22.50
2022-08-03T07:27:29.589Z,22.60
2022-08-03T07:29:58.263Z,22.60
2022-08-03T07:32:25.621Z,22.60
2022-08-03T07:34:56.948Z,22.70
2022-08-03T07:37:27.432Z,22.70
2022-08-03T07:39:54.443Z,22.80
2022-08-03T07:42:23.312Z,22.90
2022-08-03T07:44:50.443Z,22.80
2022-08-03T07:47:25.630Z,22.90
2022-08-03T07:50:02.306Z,23.10
2022-08-03T07:52:47.997Z,23.10
2022-08-03T07:55:16.316Z,23.00
2022-08-03T07:57:44.670Z,23.20
2022-08-03T08:00:18.567Z,23.30
2022-08-03T08:02:46.010Z,23.40
2022-08-03T08:05:14.211Z,23.50
2022-08-03T08:07:41.256Z,23.50
2022-08-03T08:10:10.167Z,23.90
2022-08-03T08:12:38.982Z,23.90
2022-08-03T08:15:07.563Z,23.90
2022-08-03T08:17:55.572Z,24.00
2022-08-03T08:20:31.739Z,24.10
2022-08-03T08:23:09.658Z,24.30
2022-08-03T08:25:52.925Z,24.40
2022-08-03T08:28:32.682Z,24.50
2022-08-03T08:31:01.465Z,24.50
2022-08-03T08:33:37.639Z,24.50
2022-08-03T08:36:16.005Z,24.70
2022-08-03T08:38:45.229Z,24.80
2022-08-03T08:41:13.716Z,24.80
2022-08-03T08:43:41.811Z,25.10
2022-08-03T08:46:12.854Z,25.10
2022-08-03T08:48:51.991Z,25.30
2022-08-03T08:51:21.662Z,25.30
2022-08-03T08:53:52.752Z,25.30
2022-08-03T08:56:22.976Z,25.40
2022-08-03T08:58:55.794Z,25.60
2022-08-03T09:01:22.981Z,25.60
2022-08-03T09:03:50.383Z,25.80
2022-08-03T09:06:17.518Z,25.90
2022-08-03T09:08:44.525Z,25.90
2022-08-03T09:11:12.134Z,26.10
2022-08-03T09:13:40.066Z,26.10
2022-08-03T09:16:21.004Z,26.20
2022-08-03T09:18:51.105Z,26.10
2022-08-03T09:21:34.537Z,26.20
2022-08-03T09:24:05.149Z,26.50
2022-08-03T09:26:38.476Z,26.60
2022-08-03T09:29:13.263Z,26.70
2022-08-03T09:31:47.135Z,26.90
2022-08-03T09:34:18.099Z,27.10
2022-08-03T09:36:49.821Z,27.00
2022-08-03T09:39:19.445Z,27.30
2022-08-03T09:41:49.230Z,27.30
2022-08-03T09:44:24.829Z,27.60
2022-08-03T09:46:55.113Z,27.60
2022-08-03T09:49:23.041Z,27.60
2022-08-03T09:52:32.530Z,27.70
2022-08-03T09:54:37.316Z,27.90
2022-08-03T09:57:04.489Z,27.90
2022-08-03T09:59:33.478Z,27.80
2022-08-03T10:02:02.003Z,27.80
2022-08-03T10:04:29.363Z,27.90
2022-08-03T10:07:25.361Z,27.70
2022-08-03T10:10:30.372Z,27.80
2022-08-03T10:12:51.742Z,28.00
2022-08-03T10:16:23.071Z,28.20
2022-08-03T10:18:05.900Z,27.90
2022-08-03T10:20:41.296Z,28.30
2022-08-03T10:23:09.737Z,28.20
2022-08-03T10:25:40.688Z,28.40
2022-08-03T10:28:11.621Z,28.70
2022-08-03T10:30:41.152Z,28.80
2022-08-03T10:33:51.834Z,29.10
2022-08-03T10:36:07.598Z,28.70
2022-08-03T10:38:53.917Z,28.60
2022-08-03T10:41:23.858Z,29.00
2022-08-03T10:43:51.710Z,29.40
2022-08-03T10:46:21.393Z,29.70
2022-08-03T10:48:50.620Z,29.60
2022-08-03T10:51:20.208Z,29.90
2022-08-03T10:53:55.377Z,29.80
2022-08-03T10:56:53.511Z,29.80
2022-08-03T10:59:46.387Z,29.90
2022-08-03T11:02:15.140Z,30.10
2022-08-03T11:04:42.961Z,30.20
2022-08-03T11:07:23.371Z,29.80
2022-08-03T11:09:56.145Z,29.70
2022-08-03T11:12:28.551Z,30.30
2022-08-03T11:15:01.698Z,30.20
2022-08-03T11:17:28.791Z,30.10
2022-08-03T11:19:57.648Z,30.20
2022-08-03T11:22:25.704Z,30.30
2022-08-03T11:24:56.362Z,30.30
2022-08-03T11:27:35.125Z,30.40
2022-08-03T11:30:32.348Z,30.50
2022-08-03T11:33:00.141Z,30.50
2022-08-03T11:35:27.160Z,30.30
2022-08-03T11:38:03.362Z,30.50
2022-08-03T11:40:45.377Z,30.90
2022-08-03T11:43:31.655Z,30.60
2022-08-03T11:46:04.576Z,30.80
2022-08-03T11:48:38.410Z,31.00
2022-08-03T11:51:08.376Z,31.40
2022-08-03T11:53:41.927Z,30.90
2022-08-03T11:59:18.628Z,31.20
2022-08-03T12:01:48.356Z,31.20
2022-08-03T12:04:19.679Z,31.30
2022-08-03T12:07:00.528Z,31.20
2022-08-03T12:09:28.938Z,31.00
2022-08-03T12:11:59.921Z,31.00
2022-08-03T12:14:49.546Z,30.50
2022-08-03T12:17:19.133Z,30.90
2022-08-03T12:19:46.596Z,31.60
2022-08-03T12:22:16.790Z,31.90
2022-08-03T12:24:46.834Z,31.60
2022-08-03T12:27:25.348Z,31.30
2022-08-03T12:29:59.054Z,31.60
2022-08-03T12:32:30.602Z,31.10
2022-08-03T12:35:01.369Z,31.10
2022-08-03T12:37:29.654Z,30.70
2022-08-03T12:40:10.592Z,30.90
2022-08-03T12:42:39.635Z,31.20
2022-08-03T12:45:39.070Z,31.00
2022-08-03T12:48:12.353Z,31.50
2022-08-03T12:50:40.202Z,31.70
2022-08-03T12:53:10.137Z,31.40
2022-08-03T12:56:04.700Z,31.00
2022-08-03T12:58:35.955Z,31.50
2022-08-03T13:01:09.840Z,31.40
2022-08-03T13:03:50.480Z,31.10
2022-08-03T13:06:26.510Z,31.90
2022-08-03T13:09:05.996Z,31.50
2022-08-03T13:11:53.628Z,31.50
2022-08-03T13:14:20.980Z,31.40
2022-08-03T13:16:50.721Z,31.70
2022-08-03T13:19:18.978Z,31.50
2022-08-03T13:21:53.626Z,31.40
2022-08-03T13:24:31.922Z,31.80
2022-08-03T13:28:01.200Z,32.10
2022-08-03T13:29:56.405Z,32.30
2022-08-03T13:32:23.818Z,32.20
2022-08-03T13:34:50.769Z,32.30
2022-08-03T13:37:17.674Z,32.00
2022-08-03T13:39:59.867Z,31.80
2022-08-03T13:42:33.570Z,31.80
2022-08-03T13:45:01.651Z,31.70
2022-08-03T13:47:30.154Z,31.60
2022-08-03T13:50:01.675Z,31.10
2022-08-03T13:52:36.562Z,31.60
2022-08-03T13:55:05.808Z,31.40
2022-08-03T13:58:02.872Z,31.50
2022-08-03T14:00:26.426Z,31.50
2022-08-03T14:03:06.694Z,31.30
2022-08-03T14:05:39.693Z,31.50
2022-08-03T14:08:07.705Z,31.60
2022-08-03T14:10:37.254Z,31.40
2022-08-03T14:13:06.154Z,31.30
2022-08-03T14:15:37.299Z,31.10
2022-08-03T14:18:07.040Z,31.00
2022-08-03T14:20:38.746Z,30.80
2022-08-03T14:23:16.378Z,30.90
2022-08-03T14:25:52.425Z,31.70
2022-08-03T14:28:23.042Z,32.40
2022-08-03T14:30:51.984Z,32.60
2022-08-03T14:33:19.186Z,32.70
2022-08-03T14:35:47.278Z,32.70
2022-08-03T14:38:15.031Z,32.90
2022-08-03T14:40:42.885Z,33.20
2022-08-03T14:43:12.150Z,32.50
2022-08-03T14:45:39.918Z,32.20
2022-08-03T14:50:24.363Z,32.00
2022-08-03T14:50:56.058Z,32.40
2022-08-03T14:53:23.968Z,32.70
2022-08-03T14:55:52.844Z,33.20
2022-08-03T14:58:23.248Z,33.20
2022-08-03T15:00:51.878Z,32.90
2022-08-03T15:03:25.425Z,32.50
2022-08-03T15:05:54.150Z,32.60
2022-08-03T15:08:22.925Z,32.70
2022-08-03T15:10:50.805Z,32.60
2022-08-03T15:13:19.477Z,33.10
2022-08-03T15:15:46.908Z,33.30
2022-08-03T15:18:13.812Z,33.20
2022-08-03T15:20:45.966Z,33.10
2022-08-03T15:23:15.408Z,33.50
2022-08-03T15:26:28.462Z,33.20
2022-08-03T15:28:30.996Z,33.00
2022-08-03T15:30:57.967Z,33.50
2022-08-03T15:33:24.894Z,33.80
2022-08-03T15:35:53.039Z,34.00
2022-08-03T15:38:22.997Z,33.90
2022-08-03T15:40:57.119Z,34.00
2022-08-03T15:43:24.681Z,34.20
2022-08-03T15:46:19.103Z,34.40
2022-08-03T15:48:42.763Z,34.40
2022-08-03T15:51:10.173Z,33.90
2022-08-03T15:53:37.906Z,33.30
2022-08-03T15:56:11.434Z,33.00
2022-08-03T15:59:09.157Z,32.60
2022-08-03T16:01:28.504Z,32.60
2022-08-03T16:03:55.492Z,32.70
2022-08-03T16:06:35.361Z,32.80
2022-08-03T16:09:05.590Z,32.70
2022-08-03T16:11:51.524Z,31.90
2022-08-03T16:14:32.049Z,31.20
2022-08-03T16:17:00.399Z,31.50
2022-08-03T16:19:28.153Z,32.00
2022-08-03T16:21:55.137Z,32.00
2022-08-03T16:24:27.965Z,31.90
2022-08-03T16:26:55.318Z,31.70
2022-08-03T16:29:23.594Z,31.70
2022-08-03T16:31:51.747Z,31.60
2022-08-03T16:34:19.275Z,31.80
2022-08-03T16:36:46.203Z,31.60
2022-08-03T16:39:13.318Z,31.60
2022-08-03T16:41:53.910Z,32.10
2022-08-03T16:44:28.896Z,32.10
2022-08-03T16:46:55.990Z,32.00
2022-08-03T16:49:55.209Z,31.90
2022-08-03T16:52:10.204Z,31.60
2022-08-03T16:54:40.155Z,31.00
2022-08-03T16:57:08.602Z,31.00
2022-08-03T16:59:37.034Z,31.10
2022-08-03T17:02:10.395Z,31.50
2022-08-03T17:04:40.132Z,31.70
2022-08-03T17:07:08.930Z,31.80
2022-08-03T17:09:38.162Z,31.60
2022-08-03T17:12:07.508Z,31.20
2022-08-03T17:14:38.115Z,30.90
2022-08-03T17:17:16.536Z,30.90
2022-08-03T17:19:47.354Z,30.90
2022-08-03T17:22:18.907Z,31.20
2022-08-03T17:24:53.483Z,31.10
2022-08-03T17:28:49.455Z,31.00
2022-08-03T17:30:18.817Z,31.00
2022-08-03T17:32:53.520Z,30.80
2022-08-03T17:35:35.526Z,30.70
2022-08-03T17:38:10.470Z,30.60
2022-08-03T17:40:48.148Z,30.60
2022-08-03T17:44:13.226Z,30.50
2022-08-03T17:46:10.576Z,30.60
2022-08-03T17:48:41.377Z,30.50
2022-08-03T17:51:29.975Z,30.50
2022-08-03T17:54:18.700Z,30.20
2022-08-03T17:57:22.331Z,30.40
2022-08-03T18:00:00.993Z,30.40
2022-08-03T18:03:16.117Z,30.20
2022-08-03T18:06:12.003Z,30.20
2022-08-03T18:08:45.494Z,30.20
2022-08-03T18:11:16.151Z,30.10
2022-08-03T18:13:53.394Z,30.10
2022-08-03T18:16:44.993Z,30.00
2022-08-03T18:19:13.744Z,30.10
2022-08-03T18:22:03.366Z,30.10
2022-08-03T18:24:30.986Z,30.10
2022-08-03T18:27:00.184Z,30.00
2022-08-03T18:29:31.041Z,29.90
2022-08-03T18:32:04.036Z,29.80
2022-08-03T18:34:34.968Z,29.80
2022-08-03T18:37:07.506Z,29.80
2022-08-03T18:42:26.948Z,29.60
2022-08-03T18:44:56.343Z,29.50
2022-08-03T18:47:50.841Z,29.50
2022-08-03T18:50:25.707Z,29.40
2022-08-03T18:53:15.538Z,29.30
2022-08-03T18:56:22.603Z,29.30
2022-08-03T18:59:08.844Z,29.20
2022-08-03T19:02:00.108Z,29.10
2022-08-03T19:04:30.990Z,29.10
2022-08-03T19:07:09.485Z,29.00
2022-08-03T19:09:59.920Z,28.90
2022-08-03T19:12:52.939Z,28.80
2022-08-03T19:15:36.903Z,28.80
2022-08-03T19:18:11.347Z,28.70
2022-08-03T19:20:38.403Z,28.60
2022-08-03T19:23:06.792Z,28.60
2022-08-03T19:25:39.240Z,28.50
2022-08-03T19:28:08.815Z,28.60
2022-08-03T19:30:46.175Z,28.40
2022-08-03T19:33:22.908Z,28.40
2022-08-03T19:35:55.565Z,28.30
2022-08-03T19:38:29.048Z,28.20
2022-08-03T19:41:00.078Z,28.10
2022-08-03T19:43:53.056Z,28.10
2022-08-03T19:46:30.340Z,28.00
2022-08-03T19:49:15.111Z,27.90
2022-08-03T19:51:59.048Z,27.80
2022-08-03T19:54:54.055Z,27.80
2022-08-03T19:57:24.580Z,27.70
2022-08-03T19:59:54.229Z,27.60
2022-08-03T20:02:26.510Z,27.50
2022-08-03T20:05:00.073Z,27.60
2022-08-03T20:07:30.926Z,27.50
2022-08-03T20:10:01.866Z,27.40
2022-08-03T20:12:39.158Z,27.20
2022-08-03T20:15:07.281Z,27.20
2022-08-03T20:17:56.390Z,27.10
2022-08-03T20:20:29.460Z,27.10
2022-08-03T20:22:59.014Z,27.00
2022-08-03T20:25:38.366Z,27.00
2022-08-03T20:28:15.285Z,26.80
2022-08-03T20:30:46.274Z,26.70
2022-08-03T20:33:18.802Z,26.60
2022-08-03T20:35:48.847Z,26.70
2022-08-03T20:38:18.972Z,26.60
2022-08-03T20:40:47.753Z,26.60
2022-08-03T20:43:19.948Z,26.50
2022-08-03T20:45:59.014Z,26.50
2022-08-03T20:48:37.183Z,26.40
2022-08-03T20:51:19.591Z,26.40
2022-08-03T20:53:59.698Z,26.50
2022-08-03T20:56:32.272Z,26.40
2022-08-03T20:59:03.384Z,26.30
2022-08-03T21:01:36.296Z,26.30
2022-08-03T21:04:09.519Z,26.20
2022-08-03T21:06:53.149Z,26.10
2022-08-03T21:09:33.501Z,26.00
2022-08-03T21:12:13.129Z,26.00
2022-08-03T21:12:58.867Z,29.80
2022-08-03T21:15:04.928Z,26.10
2022-08-03T21:17:41.998Z,26.00
2022-08-03T21:20:13.407Z,26.00
2022-08-03T21:22:45.680Z,25.90
2022-08-03T21:25:16.025Z,25.80
2022-08-03T21:27:45.678Z,25.80
2022-08-03T21:30:13.085Z,25.70
2022-08-03T21:32:43.725Z,25.60
2022-08-03T21:35:11.831Z,25.60
2022-08-03T21:37:44.804Z,25.60
2022-08-03T21:40:15.994Z,25.60
2022-08-03T21:42:45.084Z,25.40
2022-08-03T21:45:17.076Z,25.40
2022-08-03T21:47:46.584Z,25.40
2022-08-03T21:50:13.974Z,25.40
2022-08-03T21:52:44.021Z,25.30
2022-08-03T21:55:18.395Z,25.20
2022-08-03T21:57:53.244Z,25.30
2022-08-03T22:00:23.085Z,25.40
2022-08-03T22:02:55.397Z,25.30
2022-08-03T22:05:29.204Z,25.20
2022-08-03T22:08:13.761Z,25.10
2022-08-03T22:10:43.854Z,25.00
2022-08-03T22:13:13.281Z,25.00
2022-08-03T22:15:42.493Z,25.00
2022-08-03T22:18:09.731Z,25.00
2022-08-03T22:20:36.916Z,24.90
2022-08-03T22:23:06.500Z,24.80
2022-08-03T22:25:40.838Z,24.70
2022-08-03T22:28:11.807Z,24.60
2022-08-03T22:30:42.485Z,24.50
2022-08-03T22:33:11.985Z,24.50
2022-08-03T22:35:47.397Z,24.50
2022-08-03T22:38:17.105Z,24.50
2022-08-03T22:40:44.955Z,24.40
2022-08-03T22:43:11.945Z,24.30
2022-08-03T22:46:06.379Z,24.30
2022-08-03T22:48:27.799Z,24.20
2022-08-03T22:50:56.315Z,24.10
2022-08-03T22:53:23.368Z,24.10
2022-08-03T22:55:51.841Z,24.00
2022-08-03T22:58:20.926Z,23.90
2022-08-03T23:01:17.190Z,23.90
2022-08-03T23:04:00.863Z,23.90
2022-08-03T23:06:41.752Z,23.90
2022-08-03T23:09:11.166Z,23.90
2022-08-03T23:11:43.036Z,23.80
2022-08-03T23:14:15.587Z,23.60
2022-08-03T23:16:44.304Z,23.60
2022-08-03T23:19:17.118Z,23.60
2022-08-03T23:21:53.593Z,23.70
2022-08-03T23:24:30.298Z,23.60
2022-08-03T23:26:58.366Z,23.60
2022-08-03T23:29:29.015Z,23.60
2022-08-03T23:31:56.877Z,23.70
2022-08-03T23:34:43.849Z,23.70
2022-08-03T23:37:15.524Z,23.80
2022-08-03T23:39:44.752Z,23.70
2022-08-03T23:42:13.066Z,23.60
2022-08-03T23:44:42.509Z,23.60
2022-08-03T23:47:09.520Z,23.50
2022-08-03T23:49:36.679Z,23.50
2022-08-03T23:52:24.198Z,23.50
2022-08-03T23:54:57.285Z,23.50
2022-08-03T23:57:50.938Z,23.50
